createdAt,value
2023-03-19T00:02:23.559Z,100.00
2023-03-19T00:05:25.051Z,100.00
2023-03-19T00:08:26.563Z,100.00
2023-03-19T00:11:28.066Z,100.00
2023-03-19T00:14:29.568Z,100.00
2023-03-19T00:17:31.342Z,100.00
2023-03-19T00:20:32.784Z,100.00
2023-03-19T00:23:34.469Z,100.00
2023-03-19T00:26:37.037Z,100.00
2023-03-19T00:29:38.536Z,100.00
2023-03-19T00:32:40.620Z,100.00
2023-03-19T00:35:42.161Z,100.00
2023-03-19T00:38:44.674Z,100.00
2023-03-19T00:41:50.514Z,100.00
2023-03-19T00:44:52.317Z,100.00
2023-03-19T00:47:53.805Z,100.00
2023-03-19T00:50:55.284Z,100.00
2023-03-19T00:53:56.822Z,100.00
2023-03-19T00:56:58.337Z,100.00
2023-03-19T00:59:59.794Z,100.00
2023-03-19T01:03:01.417Z,100.00
2023-03-19T01:06:02.923Z,100.00
2023-03-19T01:09:04.414Z,100.00
2023-03-19T01:12:06.525Z,100.00
2023-03-19T01:15:08.731Z,100.00
2023-03-19T01:18:11.067Z,100.00
2023-03-19T01:21:12.565Z,100.00
2023-03-19T01:24:14.112Z,100.00
2023-03-19T01:27:15.594Z,100.00
2023-03-19T01:30:17.104Z,100.00
2023-03-19T01:33:20.591Z,100.00
2023-03-19T01:36:22.446Z,100.00
2023-03-19T01:39:23.918Z,100.00
2023-03-19T01:42:25.698Z,100.00
2023-03-19T01:45:37.154Z,100.00
2023-03-19T01:48:46.036Z,100.00
2023-03-19T01:51:47.577Z,100.00
2023-03-19T01:54:49.017Z,100.00
2023-03-19T01:57:51.147Z,100.00
2023-03-19T02:00:53.070Z,100.00
2023-03-19T02:03:54.511Z,100.00
2023-03-19T02:06:56.265Z,100.00
2023-03-19T02:09:58.323Z,100.00
2023-03-19T02:12:59.998Z,100.00
2023-03-19T02:16:01.487Z,100.00
2023-03-19T02:19:02.996Z,100.00
2023-03-19T02:22:04.511Z,100.00
2023-03-19T02:25:20.253Z,100.00
2023-03-19T02:28:22.411Z,100.00
2023-03-19T02:31:24.154Z,100.00
2023-03-19T02:34:25.512Z,100.00
2023-03-19T02:37:28.433Z,100.00
2023-03-19T02:40:31.180Z,100.00
2023-03-19T02:43:34.050Z,100.00
2023-03-19T02:46:35.700Z,100.00
2023-03-19T02:49:37.165Z,100.00
2023-03-19T02:52:38.628Z,100.00
2023-03-19T02:55:40.217Z,100.00
2023-03-19T02:58:41.887Z,100.00
2023-03-19T03:01:43.378Z,100.00
2023-03-19T03:04:44.883Z,100.00
2023-03-19T03:07:46.367Z,100.00
2023-03-19T03:10:48.006Z,100.00
2023-03-19T03:13:49.433Z,100.00
2023-03-19T03:16:50.987Z,100.00
2023-03-19T03:19:53.217Z,100.00
2023-03-19T03:22:54.700Z,100.00
2023-03-19T03:25:56.187Z,100.00
2023-03-19T03:28:57.635Z,100.00
2023-03-19T03:31:59.091Z,100.00
2023-03-19T03:35:00.928Z,100.00
2023-03-19T03:38:03.440Z,100.00
2023-03-19T03:41:04.984Z,100.00
2023-03-19T03:44:06.721Z,100.00
2023-03-19T03:47:08.361Z,100.00
2023-03-19T03:50:11.051Z,100.00
2023-03-19T03:53:13.038Z,100.00
2023-03-19T03:56:14.497Z,100.00
2023-03-19T03:59:16.399Z,100.00
2023-03-19T04:02:17.904Z,100.00
2023-03-19T04:05:19.371Z,100.00
2023-03-19T04:08:20.813Z,100.00
2023-03-19T04:11:23.299Z,100.00
2023-03-19T04:14:24.897Z,100.00
2023-03-19T04:17:26.361Z,100.00
2023-03-19T04:20:27.842Z,100.00
2023-03-19T04:23:29.317Z,100.00
2023-03-19T04:26:30.877Z,100.00
2023-03-19T04:29:32.434Z,100.00
2023-03-19T04:32:35.554Z,100.00
2023-03-19T04:35:37.169Z,100.00
2023-03-19T04:38:38.620Z,100.00
2023-03-19T04:41:40.138Z,100.00
2023-03-19T04:44:42.068Z,100.00
2023-03-19T04:47:43.566Z,100.00
2023-03-19T04:50:47.190Z,100.00
2023-03-19T04:53:49.222Z,100.00
2023-03-19T04:56:51.120Z,100.00
2023-03-19T04:59:52.632Z,100.00
2023-03-19T05:02:54.134Z,100.00
2023-03-19T05:05:55.637Z,100.00
2023-03-19T05:08:57.086Z,100.00
2023-03-19T05:11:58.732Z,100.00
2023-03-19T05:15:00.409Z,100.00
2023-03-19T05:18:01.953Z,100.00
2023-03-19T05:21:04.874Z,100.00
2023-03-19T05:24:06.826Z,100.00
2023-03-19T05:27:08.309Z,100.00
2023-03-19T05:30:10.920Z,100.00
2023-03-19T05:33:12.921Z,100.00
2023-03-19T05:36:14.476Z,100.00
2023-03-19T05:39:15.953Z,100.00
2023-03-19T05:42:17.584Z,100.00
2023-03-19T05:45:19.188Z,100.00
2023-03-19T05:48:20.944Z,100.00
2023-03-19T05:51:22.436Z,100.00
2023-03-19T05:54:24.005Z,100.00
2023-03-19T05:57:25.525Z,100.00
2023-03-19T06:00:27.076Z,100.00
2023-03-19T06:03:28.728Z,100.00
2023-03-19T06:06:30.269Z,100.00
2023-03-19T06:09:31.709Z,100.00
2023-03-19T06:12:33.167Z,100.00
2023-03-19T06:15:34.972Z,100.00
2023-03-19T06:18:37.275Z,100.00
2023-03-19T06:21:38.822Z,100.00
2023-03-19T06:24:40.317Z,100.00
2023-03-19T06:27:41.834Z,100.00
2023-03-19T06:30:43.502Z,100.00
2023-03-19T06:33:45.149Z,100.00
2023-03-19T06:36:46.804Z,100.00
2023-03-19T06:39:49.359Z,100.00
2023-03-19T06:42:50.869Z,100.00
2023-03-19T06:45:52.384Z,100.00
2023-03-19T06:48:54.170Z,100.00
2023-03-19T06:51:56.687Z,100.00
2023-03-19T06:54:58.356Z,100.00
2023-03-19T06:57:59.815Z,100.00
2023-03-19T07:01:01.360Z,100.00
2023-03-19T07:04:02.976Z,100.00
2023-03-19T07:07:05.879Z,100.00
2023-03-19T07:10:08.885Z,100.00
2023-03-19T07:13:10.654Z,100.00
2023-03-19T07:16:12.297Z,100.00
2023-03-19T07:19:14.085Z,100.00
2023-03-19T07:22:16.137Z,100.00
2023-03-19T07:25:17.792Z,100.00
2023-03-19T07:28:19.242Z,100.00
2023-03-19T07:31:20.811Z,100.00
2023-03-19T07:34:23.186Z,100.00
2023-03-19T07:37:24.531Z,100.00
2023-03-19T07:40:26.427Z,100.00
2023-03-19T07:43:28.010Z,100.00
2023-03-19T07:46:29.773Z,100.00
2023-03-19T07:49:31.347Z,100.00
2023-03-19T07:52:32.844Z,100.00
2023-03-19T07:55:36.013Z,100.00
2023-03-19T07:58:38.668Z,100.00
2023-03-19T08:01:40.217Z,100.00
2023-03-19T08:04:41.934Z,100.00
2023-03-19T08:07:45.073Z,100.00
2023-03-19T08:10:48.034Z,100.00
2023-03-19T08:13:49.513Z,100.00
2023-03-19T08:16:51.148Z,100.00
2023-03-19T08:19:52.635Z,100.00
2023-03-19T08:22:54.225Z,100.00
2023-03-19T08:25:56.995Z,100.00
2023-03-19T08:28:59.155Z,100.00
2023-03-19T08:32:01.290Z,100.00
2023-03-19T08:35:03.495Z,100.00
2023-03-19T08:38:04.854Z,97.01
2023-03-19T08:41:06.710Z,96.88
2023-03-19T08:44:08.192Z,92.93
2023-03-19T08:47:11.345Z,88.81
2023-03-19T08:50:13.038Z,88.58
2023-03-19T08:53:15.467Z,83.97
2023-03-19T08:56:17.006Z,89.27
2023-03-19T08:59:18.521Z,87.37
2023-03-19T09:02:19.972Z,87.80
2023-03-19T09:05:22.476Z,85.06
2023-03-19T09:08:24.140Z,85.72
2023-03-19T09:11:25.896Z,90.39
2023-03-19T09:14:27.397Z,92.66
2023-03-19T09:17:28.875Z,91.23
2023-03-19T09:20:30.369Z,86.12
2023-03-19T09:23:31.837Z,84.81
2023-03-19T09:26:33.341Z,86.11
2023-03-19T09:29:34.870Z,89.89
2023-03-19T09:32:36.678Z,92.92
2023-03-19T09:35:39.743Z,95.84
2023-03-19T09:38:41.431Z,99.47
2023-03-19T09:42:00.127Z,100.00
2023-03-19T09:45:01.855Z,98.28
2023-03-19T09:48:06.678Z,95.65
2023-03-19T09:51:09.149Z,93.38
2023-03-19T09:54:22.526Z,92.19
2023-03-19T09:57:24.048Z,93.48
2023-03-19T10:00:36.769Z,93.66
2023-03-19T10:03:56.107Z,92.78
2023-03-19T10:07:05.521Z,92.20
2023-03-19T10:10:22.328Z,90.62
2023-03-19T10:13:44.507Z,91.26
2023-03-19T10:16:46.692Z,89.09
2023-03-19T10:19:53.435Z,92.69
2023-03-19T10:23:01.593Z,93.32
2023-03-19T10:26:04.614Z,96.00
2023-03-19T10:29:15.712Z,98.58
2023-03-19T10:32:34.785Z,99.09
2023-03-19T10:35:45.872Z,98.46
2023-03-19T10:38:47.414Z,99.62
2023-03-19T10:41:55.485Z,98.89
2023-03-19T10:45:00.591Z,96.73
2023-03-19T10:48:03.011Z,97.10
2023-03-19T10:51:04.868Z,95.60
2023-03-19T10:54:21.897Z,93.32
2023-03-19T10:57:26.653Z,95.81
2023-03-19T11:00:29.799Z,92.15
2023-03-19T11:03:32.301Z,93.90
2023-03-19T11:06:37.589Z,95.22
2023-03-19T11:09:40.590Z,96.55
2023-03-19T11:12:42.503Z,98.27
2023-03-19T11:15:45.973Z,98.28
2023-03-19T11:18:48.439Z,97.93
2023-03-19T11:22:07.975Z,99.03
2023-03-19T11:25:21.496Z,98.48
2023-03-19T11:28:26.412Z,100.00
2023-03-19T11:31:46.943Z,99.09
2023-03-19T11:34:59.665Z,100.00
2023-03-19T11:38:01.928Z,100.00
2023-03-19T11:41:30.550Z,100.00
2023-03-19T11:44:46.754Z,100.00
2023-03-19T11:48:27.209Z,100.00
2023-03-19T11:51:36.942Z,100.00
2023-03-19T11:54:48.422Z,100.00
2023-03-19T11:58:16.335Z,100.00
2023-03-19T12:01:28.284Z,97.27
2023-03-19T12:05:11.790Z,99.15
2023-03-19T12:08:34.346Z,99.86
2023-03-19T12:11:51.464Z,100.00
2023-03-19T12:15:25.566Z,100.00
2023-03-19T12:18:56.540Z,100.00
2023-03-19T12:22:08.191Z,100.00
2023-03-19T12:25:28.642Z,100.00
2023-03-19T12:28:30.804Z,96.70
2023-03-19T12:31:43.748Z,95.45
2023-03-19T12:35:13.032Z,89.18
2023-03-19T12:38:34.206Z,82.24
2023-03-19T12:41:37.078Z,85.45
2023-03-19T12:44:40.716Z,92.30
2023-03-19T12:47:42.185Z,93.97
2023-03-19T12:50:45.709Z,90.00
2023-03-19T12:53:52.303Z,88.68
2023-03-19T12:57:14.862Z,90.40
2023-03-19T13:00:29.941Z,97.50
2023-03-19T13:03:37.621Z,100.00
2023-03-19T13:06:44.849Z,100.00
2023-03-19T13:10:01.909Z,100.00
2023-03-19T13:13:13.926Z,100.00
2023-03-19T13:16:27.983Z,100.00
2023-03-19T13:19:40.335Z,100.00
2023-03-19T13:22:42.400Z,100.00
2023-03-19T13:25:44.645Z,100.00
2023-03-19T13:29:01.506Z,100.00
2023-03-19T13:32:10.201Z,100.00
2023-03-19T13:35:26.702Z,100.00
2023-03-19T13:38:39.810Z,100.00
2023-03-19T13:41:43.356Z,100.00
2023-03-19T13:44:52.799Z,100.00
2023-03-19T13:47:55.208Z,100.00
2023-03-19T13:51:06.839Z,100.00
2023-03-19T13:54:23.167Z,100.00
2023-03-19T13:57:36.323Z,100.00
2023-03-19T14:00:48.069Z,100.00
2023-03-19T14:04:04.196Z,100.00
2023-03-19T14:07:15.250Z,100.00
2023-03-19T14:10:25.325Z,100.00
2023-03-19T14:13:41.827Z,100.00
2023-03-19T14:16:44.340Z,100.00
2023-03-19T14:19:46.317Z,100.00
2023-03-19T14:22:56.680Z,100.00
2023-03-19T14:26:07.792Z,100.00
2023-03-19T14:29:14.532Z,100.00
2023-03-19T14:32:19.652Z,100.00
2023-03-19T14:35:23.758Z,100.00
2023-03-19T14:38:30.466Z,100.00
2023-03-19T14:41:38.309Z,100.00
2023-03-19T14:44:43.048Z,100.00
2023-03-19T14:47:44.854Z,100.00
2023-03-19T14:51:08.019Z,100.00
2023-03-19T14:54:24.941Z,100.00
2023-03-19T14:57:28.895Z,100.00
2023-03-19T15:00:44.625Z,100.00
2023-03-19T15:03:48.766Z,100.00
2023-03-19T15:06:56.488Z,100.00
2023-03-19T15:10:06.522Z,100.00
2023-03-19T15:13:09.088Z,100.00
2023-03-19T15:16:33.090Z,100.00
2023-03-19T15:19:35.360Z,100.00
2023-03-19T15:22:38.136Z,100.00
2023-03-19T15:26:01.529Z,100.00
2023-03-19T15:29:11.727Z,100.00
2023-03-19T15:32:16.051Z,100.00
2023-03-19T15:35:21.023Z,100.00
2023-03-19T15:38:23.035Z,100.00
2023-03-19T15:41:29.226Z,100.00
2023-03-19T15:44:41.144Z,100.00
2023-03-19T15:48:02.228Z,100.00
2023-03-19T15:51:09.436Z,100.00
2023-03-19T15:54:11.687Z,100.00
2023-03-19T15:57:14.078Z,100.00
2023-03-19T16:00:19.510Z,100.00
2023-03-19T16:03:34.578Z,100.00
2023-03-19T16:06:39.628Z,100.00
2023-03-19T16:09:41.516Z,100.00
2023-03-19T16:12:48.909Z,100.00
2023-03-19T16:16:11.836Z,100.00
2023-03-19T16:19:32.121Z,100.00
2023-03-19T16:22:36.513Z,100.00
2023-03-19T16:25:40.548Z,100.00
2023-03-19T16:28:45.428Z,100.00
2023-03-19T16:32:02.720Z,100.00
2023-03-19T16:35:05.882Z,100.00
2023-03-19T16:38:15.430Z,100.00
2023-03-19T16:41:28.297Z,100.00
2023-03-19T16:44:31.548Z,100.00
2023-03-19T16:47:36.435Z,100.00
2023-03-19T16:50:39.931Z,100.00
2023-03-19T16:53:42.238Z,100.00
2023-03-19T16:56:46.745Z,100.00
2023-03-19T16:59:49.206Z,100.00
2023-03-19T17:02:56.285Z,100.00
2023-03-19T17:05:58.317Z,100.00
2023-03-19T17:09:03.012Z,100.00
2023-03-19T17:12:12.596Z,100.00
2023-03-19T17:15:30.512Z,100.00
2023-03-19T17:18:35.371Z,100.00
2023-03-19T17:21:37.769Z,100.00
2023-03-19T17:24:42.814Z,100.00
2023-03-19T17:27:45.382Z,100.00
2023-03-19T17:30:47.930Z,100.00
2023-03-19T17:33:50.254Z,100.00
2023-03-19T17:37:12.731Z,100.00
2023-03-19T17:40:25.252Z,100.00
2023-03-19T17:43:27.575Z,100.00
2023-03-19T17:46:29.575Z,100.00
2023-03-19T17:49:37.048Z,100.00
2023-03-19T17:52:39.401Z,100.00
2023-03-19T17:55:41.757Z,100.00
2023-03-19T17:58:44.253Z,100.00
2023-03-19T18:01:50.138Z,100.00
2023-03-19T18:04:54.398Z,100.00
2023-03-19T18:07:59.086Z,100.00
2023-03-19T18:11:01.340Z,100.00
2023-03-19T18:14:02.907Z,100.00
2023-03-19T18:17:08.551Z,100.00
2023-03-19T18:20:15.188Z,100.00
2023-03-19T18:23:17.650Z,100.00
2023-03-19T18:26:24.563Z,100.00
2023-03-19T18:29:27.388Z,100.00
2023-03-19T18:32:30.834Z,100.00
2023-03-19T18:35:45.439Z,100.00
2023-03-19T18:38:52.040Z,100.00
2023-03-19T18:41:54.756Z,100.00
2023-03-19T18:44:56.659Z,100.00
2023-03-19T18:48:00.485Z,100.00
2023-03-19T18:51:02.846Z,100.00
2023-03-19T18:54:05.974Z,100.00
2023-03-19T18:57:11.353Z,100.00
2023-03-19T19:00:28.393Z,100.00
2023-03-19T19:03:36.837Z,100.00
2023-03-19T19:06:47.330Z,100.00
2023-03-19T19:13:17.000Z,100.00
2023-03-19T19:16:23.845Z,100.00
2023-03-19T19:19:27.641Z,100.00
2023-03-19T19:22:29.820Z,100.00
2023-03-19T19:25:31.471Z,100.00
2023-03-19T19:28:36.352Z,100.00
2023-03-19T19:31:40.563Z,100.00
2023-03-19T19:34:42.427Z,100.00
2023-03-19T19:37:44.084Z,100.00
2023-03-19T19:40:47.164Z,100.00
2023-03-19T19:43:49.010Z,100.00
2023-03-19T19:46:53.417Z,100.00
2023-03-19T19:49:55.203Z,100.00
2023-03-19T19:52:56.968Z,100.00
2023-03-19T19:55:58.683Z,100.00
2023-03-19T19:59:00.612Z,100.00
2023-03-19T20:02:02.127Z,100.00
2023-03-19T20:05:04.668Z,100.00
2023-03-19T20:08:06.473Z,100.00
2023-03-19T20:11:22.337Z,100.00
2023-03-19T20:14:24.087Z,100.00
2023-03-19T20:17:25.922Z,100.00
2023-03-19T20:20:29.111Z,100.00
2023-03-19T20:23:32.310Z,100.00
2023-03-19T20:26:35.110Z,100.00
2023-03-19T20:29:37.144Z,100.00
2023-03-19T20:32:39.019Z,100.00
2023-03-19T20:35:40.761Z,100.00
2023-03-19T20:38:42.635Z,100.00
2023-03-19T20:41:44.453Z,100.00
2023-03-19T20:44:46.237Z,100.00
2023-03-19T20:47:48.716Z,100.00
2023-03-19T20:50:50.656Z,100.00
2023-03-19T20:53:52.964Z,100.00
2023-03-19T20:56:54.943Z,100.00
2023-03-19T21:00:02.268Z,100.00
2023-03-19T21:03:04.018Z,100.00
2023-03-19T21:06:08.556Z,100.00
2023-03-19T21:09:10.539Z,100.00
2023-03-19T21:12:28.508Z,100.00
2023-03-19T21:15:31.008Z,100.00
2023-03-19T21:18:32.934Z,100.00
2023-03-19T21:21:35.804Z,100.00
2023-03-19T21:24:37.403Z,100.00
2023-03-19T21:27:42.218Z,100.00
2023-03-19T21:30:44.046Z,100.00
2023-03-19T21:33:46.742Z,100.00
2023-03-19T21:36:51.461Z,100.00
2023-03-19T21:39:53.202Z,100.00
2023-03-19T21:42:58.441Z,100.00
2023-03-19T21:46:13.840Z,100.00
2023-03-19T21:49:16.163Z,100.00
2023-03-19T21:52:19.421Z,100.00
2023-03-19T21:55:21.219Z,100.00
2023-03-19T21:58:28.945Z,100.00
2023-03-19T22:01:30.693Z,100.00
2023-03-19T22:04:34.967Z,100.00
2023-03-19T22:07:38.804Z,100.00
2023-03-19T22:10:40.735Z,100.00
2023-03-19T22:13:43.374Z,100.00
2023-03-19T22:16:51.312Z,100.00
2023-03-19T22:19:54.142Z,100.00
2023-03-19T22:22:56.331Z,100.00
2023-03-19T22:25:57.962Z,100.00
2023-03-19T22:29:02.392Z,100.00
2023-03-19T22:32:04.089Z,100.00
2023-03-19T22:35:06.380Z,100.00
2023-03-19T22:38:08.061Z,100.00
2023-03-19T22:41:15.287Z,100.00
2023-03-19T22:44:26.479Z,100.00
2023-03-19T22:47:28.129Z,100.00
2023-03-19T22:50:31.108Z,100.00
2023-03-19T22:53:34.652Z,100.00
2023-03-19T22:56:38.690Z,100.00
2023-03-19T22:59:44.298Z,100.00
2023-03-19T23:02:46.813Z,100.00
2023-03-19T23:05:49.332Z,100.00
2023-03-19T23:08:51.037Z,100.00
2023-03-19T23:11:53.660Z,100.00
2023-03-19T23:14:56.774Z,100.00
2023-03-19T23:17:58.943Z,100.00
2023-03-19T23:21:01.047Z,100.00
2023-03-19T23:24:02.720Z,100.00
2023-03-19T23:27:04.350Z,100.00
2023-03-19T23:30:06.565Z,100.00
2023-03-19T23:33:08.804Z,100.00
2023-03-19T23:36:10.946Z,100.00
2023-03-19T23:39:12.575Z,100.00
2023-03-19T23:42:22.469Z,100.00
2023-03-19T23:45:28.984Z,100.00
2023-03-19T23:48:39.221Z,100.00
2023-03-19T23:51:43.095Z,100.00
2023-03-19T23:54:46.719Z,100.00
2023-03-19T23:57:48.512Z,100.00
